This is the latest recevied weather packets stored in our database for station/object W7PLC. If no packets are shown the sender has not sent any weather packets the latest 10 day(s).
| Time | Temp. | Humidity | Pressure | Rain* | Wind** | Luminosity | Snow |
|---|---|---|---|---|---|---|---|
| 1777771714 | 23.89° C | 50% | 1010.7 hPa | 0 mm | - | 24 W/m² | - |
| 1777771412 | 24.44° C | 49% | 1010.7 hPa | 0 mm | - | 25 W/m² | - |
| 1777771108 | 24.44° C | 49% | 1010.5 hPa | 0 mm | - | 26 W/m² | - |
| 1777770805 | 24.44° C | 49% | 1010.5 hPa | 0 mm | - | 26 W/m² | - |
| 1777770501 | 25° C | 50% | 1010.7 hPa | 0 mm | - | 28 W/m² | - |
| 1777770199 | 25° C | 48% | 1010.6 hPa | 0 mm | - | 29 W/m² | - |
| 1777769895 | 25.56° C | 46% | 1010.4 hPa | 0 mm | - | 30 W/m² | - |
| 1777769593 | 25° C | 49% | 1010.6 hPa | 0 mm | - | 31 W/m² | - |
| 1777769289 | 25.56° C | 47% | 1010.8 hPa | 0 mm | - | 117 W/m² | - |
| 1777768987 | 24.44° C | 49% | 1010.8 hPa | 0 mm | - | 209 W/m² | - |
| 1777768684 | 25.56° C | 48% | 1010.6 hPa | 0 mm | - | 236 W/m² | - |
| 1777768381 | 26.11° C | 47% | 1010.9 hPa | 0 mm | - | 247 W/m² | - |
| 1777768078 | 26.11° C | 48% | 1010.7 hPa | 0 mm | - | 288 W/m² | - |
| 1777767775 | 25.56° C | 47% | 1010.7 hPa | 0 mm | - | 292 W/m² | - |
| 1777767471 | 26.11° C | 48% | 1010.8 hPa | 0 mm | - | 274 W/m² | - |
| 1777767168 | 26.11° C | 47% | 1010.9 hPa | 0 mm | - | 326 W/m² | - |
| 1777766865 | 26.11° C | 47% | 1010.9 hPa | 0 mm | - | 326 W/m² | - |
| 1777766562 | 25° C | 48% | 1010.9 hPa | 0 mm | - | 326 W/m² | - |
| 1777766259 | 25° C | 50% | 1011.1 hPa | 0 mm | - | 331 W/m² | - |
| 1777765957 | 26.11° C | 49% | 1010.9 hPa | 0 mm | - | 351 W/m² | - |
| 1777765653 | 25.56° C | 50% | 1011.2 hPa | 0 mm | - | 397 W/m² | - |
| 1777765350 | 25.56° C | 50% | 1011.4 hPa | 0 mm | - | 444 W/m² | - |
| 1777765046 | 24.44° C | 51% | 1011.5 hPa | 0 mm | - | 468 W/m² | - |
| 1777764744 | 25° C | 51% | 1011.5 hPa | 0 mm | - | 446 W/m² | - |
| 1777764439 | 25° C | 51% | 1011.7 hPa | 0 mm | - | 341 W/m² | - |
* Rain latest hour (hover to see other rain measurements)
** Current wind speed in m/s (hover to see current wind gust speed)